createdAt,value
2019-04-04T00:02:37.225Z,9.13
2019-04-04T00:08:00.095Z,9.17
2019-04-04T00:13:24.700Z,10.27
2019-04-04T00:18:47.865Z,9.73
2019-04-04T00:24:10.229Z,8.13
2019-04-04T00:29:32.218Z,9.03
2019-04-04T00:34:53.748Z,5.80
2019-04-04T00:40:17.429Z,10.40
2019-04-04T00:45:38.519Z,9.10
2019-04-04T00:51:00.691Z,9.87
2019-04-04T00:56:21.970Z,7.53
2019-04-04T01:01:44.520Z,8.53
2019-04-04T01:07:06.172Z,7.33
2019-04-04T01:12:32.282Z,9.70
2019-04-04T01:17:53.531Z,8.80
2019-04-04T01:23:15.405Z,7.33
2019-04-04T01:28:37.097Z,9.30
2019-04-04T01:34:01.332Z,13.80
2019-04-04T01:39:22.977Z,11.80
2019-04-04T01:44:44.499Z,9.17
2019-04-04T01:50:07.547Z,8.10
2019-04-04T01:55:29.398Z,10.80
2019-04-04T02:00:52.211Z,13.23
2019-04-04T02:06:13.701Z,11.80
2019-04-04T02:11:37.450Z,12.70
2019-04-04T02:16:59.077Z,10.67
2019-04-04T02:22:23.514Z,10.13
2019-04-04T02:27:45.279Z,11.43
2019-04-04T02:33:09.059Z,20.13
2019-04-04T02:38:30.808Z,20.53
2019-04-04T02:43:52.416Z,14.97
2019-04-04T02:49:13.656Z,22.27
2019-04-04T02:54:35.194Z,21.67
2019-04-04T02:59:56.988Z,15.20
2019-04-04T03:05:19.986Z,18.87
2019-04-04T03:10:42.788Z,15.17
2019-04-04T03:16:06.784Z,18.13
2019-04-04T03:21:28.559Z,22.23
2019-04-04T03:26:52.772Z,18.07
2019-04-04T03:32:16.247Z,14.83
2019-04-04T03:37:40.539Z,15.73
2019-04-04T03:43:01.178Z,17.53
2019-04-04T03:48:23.014Z,19.73
2019-04-04T03:53:51.608Z,13.07
2019-04-04T03:59:14.681Z,16.97
2019-04-04T04:04:36.242Z,16.83
2019-04-04T04:09:59.718Z,14.27
2019-04-04T04:15:21.576Z,22.20
2019-04-04T04:20:47.032Z,20.57
2019-04-04T04:26:09.578Z,25.40
2019-04-04T04:31:32.053Z,18.17
2019-04-04T04:36:53.871Z,18.00
2019-04-04T04:42:15.458Z,18.10
2019-04-04T04:47:37.095Z,11.70
2019-04-04T04:53:00.779Z,14.37
2019-04-04T04:58:22.958Z,12.50
2019-04-04T05:03:44.188Z,9.87
2019-04-04T05:09:06.494Z,11.40
2019-04-04T05:14:29.778Z,8.47
2019-04-04T05:19:51.560Z,11.47
2019-04-04T05:25:14.320Z,13.97
2019-04-04T05:30:35.889Z,14.33
2019-04-04T05:35:58.283Z,10.60
2019-04-04T05:41:20.927Z,9.60
2019-04-04T05:46:42.774Z,9.47
2019-04-04T05:52:04.263Z,8.47
2019-04-04T05:57:26.009Z,11.33
2019-04-04T06:02:48.519Z,13.03
2019-04-04T06:08:10.136Z,13.13
2019-04-04T06:13:31.512Z,10.37
2019-04-04T06:18:56.401Z,8.17
2019-04-04T06:24:17.973Z,12.45
2019-04-04T06:29:39.928Z,10.43
2019-04-04T06:35:01.471Z,14.83
2019-04-04T06:40:28.125Z,14.07
2019-04-04T06:45:51.661Z,13.22
2019-04-04T06:51:14.352Z,12.88
2019-04-04T06:56:36.975Z,16.40
2019-04-04T07:01:58.659Z,11.55
2019-04-04T07:07:20.843Z,11.30
2019-04-04T07:12:42.988Z,12.43
2019-04-04T07:18:04.305Z,9.30
2019-04-04T07:23:28.523Z,12.70
2019-04-04T07:28:53.925Z,11.93
2019-04-04T07:34:15.655Z,10.05
2019-04-04T07:39:37.427Z,11.83
2019-04-04T07:44:58.887Z,9.68
2019-04-04T07:50:20.496Z,11.03
2019-04-04T07:55:42.271Z,9.30
2019-04-04T08:01:05.695Z,13.58
2019-04-04T08:06:27.603Z,10.48
2019-04-04T08:11:50.145Z,28.20
2019-04-04T08:17:11.949Z,28.02
2019-04-04T08:22:33.491Z,10.03
2019-04-04T08:27:54.743Z,12.05
2019-04-04T08:33:16.719Z,10.82
2019-04-04T08:38:39.289Z,9.70
2019-04-04T08:44:01.526Z,7.60
2019-04-04T08:49:24.016Z,11.30
2019-04-04T08:54:45.512Z,11.60
2019-04-04T09:00:09.868Z,12.55
2019-04-04T09:05:31.758Z,7.03
2019-04-04T09:10:53.434Z,11.53
2019-04-04T09:16:15.345Z,12.23
2019-04-04T09:21:37.353Z,9.40
2019-04-04T09:26:59.149Z,14.47
2019-04-04T09:32:20.889Z,11.55
2019-04-04T09:37:42.997Z,9.93
2019-04-04T09:43:04.994Z,9.80
2019-04-04T09:48:26.639Z,12.37
2019-04-04T09:53:53.181Z,12.35
2019-04-04T09:59:13.708Z,10.65
2019-04-04T10:04:36.420Z,11.85
2019-04-04T10:09:58.646Z,10.32
2019-04-04T10:15:20.200Z,9.40
2019-04-04T10:20:42.062Z,12.90
2019-04-04T10:26:03.833Z,15.83
2019-04-04T10:31:25.934Z,12.58
2019-04-04T10:36:47.596Z,7.62
2019-04-04T10:42:09.284Z,12.85
2019-04-04T10:47:30.658Z,13.03
2019-04-04T10:52:52.870Z,11.38
2019-04-04T10:58:15.687Z,10.58
2019-04-04T11:03:37.529Z,11.97
2019-04-04T11:08:59.014Z,10.20
2019-04-04T11:14:20.536Z,11.15
2019-04-04T11:19:43.549Z,10.55
2019-04-04T11:25:05.971Z,14.47
2019-04-04T11:30:27.727Z,13.75
2019-04-04T11:35:49.958Z,16.85
2019-04-04T11:41:11.915Z,13.50
2019-04-04T11:46:33.404Z,12.30
2019-04-04T11:51:55.335Z,14.98
2019-04-04T11:57:16.646Z,13.03
2019-04-04T12:02:39.874Z,12.85
2019-04-04T12:08:01.781Z,15.35
2019-04-04T12:13:23.426Z,9.43
2019-04-04T12:18:44.961Z,13.98
2019-04-04T12:24:06.719Z,15.03
2019-04-04T12:29:28.837Z,12.98
2019-04-04T12:34:51.010Z,22.42
2019-04-04T12:40:20.392Z,14.50
2019-04-04T12:45:36.846Z,13.85
2019-04-04T12:51:01.187Z,14.13
2019-04-04T12:56:22.499Z,12.50
2019-04-04T13:01:44.249Z,12.23
2019-04-04T13:07:05.685Z,14.65
2019-04-04T13:12:27.652Z,11.88
2019-04-04T13:17:49.603Z,13.15
2019-04-04T13:23:14.546Z,12.95
2019-04-04T13:28:36.148Z,13.55
2019-04-04T13:33:59.168Z,14.43
2019-04-04T13:39:22.080Z,14.00
2019-04-04T13:44:45.004Z,14.63
2019-04-04T13:50:08.733Z,12.93
2019-04-04T13:55:31.019Z,12.03
2019-04-04T14:00:53.352Z,11.43
2019-04-04T14:06:14.888Z,12.93
2019-04-04T14:11:40.908Z,13.38
2019-04-04T14:17:01.401Z,12.28
2019-04-04T14:22:23.445Z,12.82
2019-04-04T14:27:46.823Z,11.60
2019-04-04T14:33:08.678Z,15.90
2019-04-04T14:38:31.296Z,13.32
2019-04-04T14:43:53.987Z,8.53
2019-04-04T14:49:18.514Z,12.35
2019-04-04T14:54:40.367Z,17.27
2019-04-04T15:00:04.208Z,12.10
2019-04-04T15:05:26.192Z,13.62
2019-04-04T15:10:49.177Z,18.77
2019-04-04T15:16:16.184Z,21.55
2019-04-04T15:21:40.959Z,16.70
2019-04-04T15:27:03.032Z,17.70
2019-04-04T15:32:27.299Z,13.78
2019-04-04T15:37:51.499Z,14.85
2019-04-04T15:43:13.434Z,11.30
2019-04-04T15:48:35.430Z,16.73
2019-04-04T15:53:57.953Z,14.23
2019-04-04T15:59:20.163Z,14.28
2019-04-04T16:04:43.053Z,14.00
2019-04-04T16:10:05.223Z,14.63
2019-04-04T16:15:27.718Z,17.37
2019-04-04T16:20:51.666Z,17.95
2019-04-04T16:26:14.178Z,20.20
2019-04-04T16:31:36.475Z,17.30
2019-04-04T16:36:59.543Z,20.68
2019-04-04T16:42:21.869Z,22.27
2019-04-04T16:47:45.216Z,18.77
2019-04-04T16:53:08.041Z,20.30
2019-04-04T16:58:30.162Z,17.12
2019-04-04T17:04:01.568Z,20.27
2019-04-04T17:09:16.848Z,17.20
2019-04-04T17:14:39.808Z,19.98
2019-04-04T17:20:03.099Z,18.48
2019-04-04T17:25:26.192Z,21.33
2019-04-04T17:30:49.592Z,21.60
2019-04-04T17:36:11.904Z,24.15
2019-04-04T17:41:33.745Z,21.23
2019-04-04T17:46:56.308Z,19.95
2019-04-04T17:52:18.425Z,19.05
2019-04-04T17:57:40.197Z,18.35
2019-04-04T18:03:02.972Z,19.42
2019-04-04T18:08:26.161Z,22.15
2019-04-04T18:13:49.600Z,21.85
2019-04-04T18:19:12.058Z,19.42
2019-04-04T18:24:35.512Z,16.93
2019-04-04T18:29:58.463Z,18.98
2019-04-04T18:35:19.861Z,20.48
2019-04-04T18:40:43.810Z,22.60
2019-04-04T18:46:05.974Z,23.07
2019-04-04T18:51:28.996Z,23.55
2019-04-04T18:56:51.117Z,25.10
2019-04-04T19:02:14.984Z,24.12
2019-04-04T19:07:39.448Z,25.88
2019-04-04T19:13:05.534Z,26.53
2019-04-04T19:18:30.473Z,21.30
2019-04-04T19:23:52.984Z,21.60
2019-04-04T19:29:15.712Z,21.80
2019-04-04T19:34:37.287Z,22.20
2019-04-04T19:40:00.199Z,19.13
2019-04-04T19:45:21.624Z,20.03
2019-04-04T19:50:46.044Z,18.77
2019-04-04T19:56:08.891Z,21.53
2019-04-04T20:01:32.298Z,30.80
2019-04-04T20:06:54.466Z,20.27
2019-04-04T20:12:15.885Z,21.43
2019-04-04T20:17:37.738Z,22.70
2019-04-04T20:22:59.342Z,26.23
2019-04-04T20:28:23.518Z,27.47
2019-04-04T20:33:45.339Z,23.57
2019-04-04T20:39:07.264Z,19.37
2019-04-04T20:44:29.771Z,19.77
2019-04-04T20:49:52.216Z,44.17
2019-04-04T20:55:14.209Z,28.30
2019-04-04T21:00:37.069Z,19.87
2019-04-04T21:05:58.707Z,19.70
2019-04-04T21:11:20.623Z,19.10
2019-04-04T21:16:43.858Z,16.60
2019-04-04T21:22:06.775Z,16.33
2019-04-04T21:27:28.289Z,17.23
2019-04-04T21:32:50.308Z,20.60
2019-04-04T21:38:12.209Z,23.13
2019-04-04T21:43:34.471Z,18.90
2019-04-04T21:48:56.471Z,17.27
2019-04-04T21:54:18.290Z,16.90
2019-04-04T21:59:40.922Z,17.90
2019-04-04T22:05:02.801Z,21.50
2019-04-04T22:10:33.133Z,16.73
2019-04-04T22:15:57.553Z,18.77
2019-04-04T22:21:23.272Z,17.23
2019-04-04T22:27:05.976Z,17.73
2019-04-04T22:32:29.553Z,17.73
2019-04-04T22:37:52.482Z,17.97
2019-04-04T22:43:17.929Z,16.20
2019-04-04T22:48:39.674Z,17.80
2019-04-04T22:54:05.042Z,17.10
2019-04-04T22:59:36.091Z,18.40
2019-04-04T23:04:58.590Z,17.73
2019-04-04T23:10:23.444Z,19.23
2019-04-04T23:15:47.039Z,16.57
2019-04-04T23:21:11.700Z,16.70
2019-04-04T23:26:35.989Z,16.47
2019-04-04T23:32:00.349Z,15.27
2019-04-04T23:37:22.533Z,17.00
2019-04-04T23:42:46.126Z,17.13
2019-04-04T23:48:12.825Z,16.33
2019-04-04T23:53:35.810Z,17.30
2019-04-04T23:58:57.608Z,18.60
